Time;durP1;ratioP1;P1;durP2;ratioP2;P2;SDS_P1;SDS_P2;PMS_P1;PMS_P2;Temp;Humidity;BMP_temperature;BMP_pressure;BME280_temperature;BME280_humidity;BME280_pressure;Samples;Min_cycle;Max_cycle;Signal;HPM_P1;HPM_P2
2023/06/26 00:01:01;;;;;;;8.15;7.35;;;;;;;-146.25;79.32;51922.16;2096072;28;31603;-71
2023/06/26 00:02:03;;;;;;;8.18;7.45;;;;;;;-146.25;79.53;51910.00;2096723;28;20099;-71
2023/06/26 00:03:07;;;;;;;7.95;7.18;;;;;;;-146.25;79.54;51932.28;2088822;28;25057;-71
2023/06/26 00:04:14;;;;;;;11.93;7.60;;;;;;;-146.25;80.05;51912.00;2095980;28;33525;-70
2023/06/26 00:05:18;;;;;;;8.07;7.28;;;;;;;-146.25;80.58;51922.16;2095743;28;20068;-70
2023/06/26 00:06:20;;;;;;;7.72;6.93;;;;;;;-146.25;79.79;51936.34;2088225;28;35592;-70
2023/06/26 00:07:21;;;;;;;8.70;7.90;;;;;;;-146.25;79.73;51934.31;2089242;28;20932;-70
2023/06/26 00:08:24;;;;;;;10.25;7.75;;;;;;;-146.25;79.78;51942.44;2088136;28;35540;-70
2023/06/26 00:09:25;;;;;;;11.00;7.57;;;;;;;-146.25;80.44;51932.28;2091075;28;28249;-70
2023/06/26 00:10:27;;;;;;;8.63;7.50;;;;;;;-146.25;80.14;51928.22;2088477;28;33879;-70
2023/06/26 00:11:33;;;;;;;8.63;7.72;;;;;;;-146.25;80.27;51950.53;2088340;28;40124;-72
2023/06/26 00:12:34;;;;;;;8.45;7.60;;;;;;;-146.25;80.12;51956.63;2087685;28;28872;-72
2023/06/26 00:13:41;;;;;;;9.25;8.38;;;;;;;-146.25;80.34;51950.53;2088022;28;28348;-72
2023/06/26 00:14:46;;;;;;;8.60;7.80;;;;;;;-146.25;80.33;51946.47;2089219;28;20041;-73
2023/06/26 00:15:47;;;;;;;8.38;7.57;;;;;;;-146.25;80.52;51970.81;2087665;28;33409;-70
2023/06/26 00:16:49;;;;;;;8.25;7.40;;;;;;;-146.25;80.79;51910.00;2088157;28;37836;-70
2023/06/26 00:17:51;;;;;;;8.50;7.70;;;;;;;-146.25;80.85;51962.69;2087942;28;26469;-72
2023/06/26 00:18:53;;;;;;;7.95;7.20;;;;;;;-146.25;81.44;51950.53;2087538;28;33622;-72
2023/06/26 00:19:55;;;;;;;8.98;8.18;;;;;;;-146.25;81.53;51930.25;2088389;28;36757;-72
2023/06/26 00:20:58;;;;;;;9.15;7.43;;;;;;;-146.25;81.73;51934.31;2088200;28;32976;-72
2023/06/26 00:22:00;;;;;;;8.23;7.43;;;;;;;-146.25;82.01;51950.53;2088283;28;35449;-72
2023/06/26 00:23:07;;;;;;;8.82;7.40;;;;;;;-146.25;81.91;51962.69;2088008;28;37334;-69
2023/06/26 00:24:08;;;;;;;9.60;7.90;;;;;;;-146.25;82.34;51946.47;2088258;28;20041;-70
2023/06/26 00:25:10;;;;;;;9.52;8.20;;;;;;;-146.25;82.14;51936.34;2085910;28;34226;-72
2023/06/26 00:26:12;;;;;;;8.75;7.55;;;;;;;-146.25;82.03;51950.53;2088324;28;20038;-71
2023/06/26 00:27:16;;;;;;;8.68;7.88;;;;;;;-146.25;82.56;51940.41;2088152;28;20034;-69
2023/06/26 00:28:18;;;;;;;8.60;7.80;;;;;;;-146.25;83.02;51958.66;2080270;28;20954;-72
2023/06/26 00:29:22;;;;;;;8.63;7.50;;;;;;;-146.25;82.70;51978.91;2088191;28;20304;-72
2023/06/26 00:30:27;;;;;;;8.23;7.53;;;;;;;-146.25;82.84;51960.66;2088363;28;20111;-72
2023/06/26 00:31:31;;;;;;;10.02;8.10;;;;;;;-146.25;83.00;51934.31;2087798;28;20092;-70
2023/06/26 00:32:35;;;;;;;8.00;7.28;;;;;;;-146.25;83.02;51954.59;2088069;28;20042;-70
2023/06/26 00:33:37;;;;;;;8.50;7.70;;;;;;;-146.25;82.96;51942.44;2079957;28;20041;-72
2023/06/26 00:34:42;;;;;;;8.90;8.02;;;;;;;-146.25;82.86;51903.91;2087859;28;29945;-72
2023/06/26 00:35:43;;;;;;;8.20;7.45;;;;;;;-146.25;82.93;51948.50;2087914;28;31294;-69
2023/06/26 00:36:45;;;;;;;9.40;8.60;;;;;;;-146.25;83.53;51970.81;2089193;28;29233;-70
2023/06/26 00:37:47;;;;;;;8.73;7.82;;;;;;;-146.25;83.72;51920.13;2087889;28;29576;-72
2023/06/26 00:38:50;;;;;;;8.25;7.55;;;;;;;-146.25;83.46;51948.50;2081179;28;20034;-70
2023/06/26 00:39:52;;;;;;;8.80;7.90;;;;;;;-146.25;83.93;51922.16;2090384;28;20147;-70
2023/06/26 00:40:54;;;;;;;8.85;8.05;;;;;;;-146.25;83.96;51924.19;2088770;28;23952;-70
2023/06/26 00:41:57;;;;;;;8.45;7.47;;;;;;;-146.25;83.89;51942.44;2087524;28;24961;-71
2023/06/26 00:43:02;;;;;;;10.00;8.60;;;;;;;-146.25;83.74;51918.09;2079302;28;31041;-71
2023/06/26 00:44:05;;;;;;;9.60;7.72;;;;;;;-146.25;83.71;51926.22;2087234;28;33858;-71
2023/06/26 00:45:07;;;;;;;8.63;7.82;;;;;;;-146.25;83.22;51918.09;2088611;28;30301;-71
2023/06/26 00:46:12;;;;;;;9.05;8.25;;;;;;;-146.25;83.64;51978.91;2086924;28;28046;-70
2023/06/26 00:47:16;;;;;;;11.40;7.72;;;;;;;-146.25;83.63;51924.19;2079847;28;29569;-70
2023/06/26 00:48:18;;;;;;;9.38;8.45;;;;;;;-146.25;83.37;51936.34;2072464;28;20102;-70
2023/06/26 00:49:20;;;;;;;8.88;8.10;;;;;;;-146.25;83.75;51936.34;2080359;28;25469;-70
2023/06/26 00:50:24;;;;;;;8.52;7.82;;;;;;;-146.25;83.58;51950.53;2095555;28;31967;-71
2023/06/26 00:51:28;;;;;;;8.25;7.53;;;;;;;-146.25;83.47;51942.44;2096445;28;20907;-71
2023/06/26 00:52:31;;;;;;;7.88;7.07;;;;;;;-146.25;83.67;51976.88;2079673;28;20180;-70
2023/06/26 00:53:34;;;;;;;8.80;8.10;;;;;;;-146.25;83.59;51958.66;2072639;28;20261;-71
2023/06/26 00:54:36;;;;;;;8.30;7.50;;;;;;;-146.25;83.74;51970.81;2080195;28;23329;-70
2023/06/26 00:55:38;;;;;;;8.40;7.65;;;;;;;-146.25;84.19;51954.59;2071170;28;40320;-70
2023/06/26 00:56:42;;;;;;;8.68;7.78;;;;;;;-146.25;84.10;51920.13;2071794;28;20049;-70
2023/06/26 00:57:45;;;;;;;8.68;7.88;;;;;;;-146.25;84.09;51932.28;2087792;28;26239;-71
2023/06/26 00:58:47;;;;;;;8.88;7.50;;;;;;;-146.25;85.05;51970.81;2095629;28;31592;-71
2023/06/26 00:59:49;;;;;;;8.95;8.00;;;;;;;-146.25;84.63;51960.66;2096051;28;30344;-71
2023/06/26 01:00:52;;;;;;;9.70;8.75;;;;;;;-146.25;85.43;51934.31;2095482;28;29592;-70
2023/06/26 01:01:54;;;;;;;9.52;8.57;;;;;;;-146.25;84.86;51942.44;2095878;28;20037;-71
2023/06/26 01:02:58;;;;;;;9.40;8.57;;;;;;;-146.25;85.17;51974.88;2088093;28;31169;-71
2023/06/26 01:04:02;;;;;;;10.52;7.85;;;;;;;-146.25;85.13;51958.66;2088090;28;20890;-71
2023/06/26 01:05:06;;;;;;;9.55;7.70;;;;;;;-146.25;85.29;51978.91;2087623;28;27547;-71
2023/06/26 01:06:13;;;;;;;9.02;8.23;;;;;;;-146.25;85.46;51958.66;2088079;28;20946;-71
2023/06/26 01:07:18;;;;;;;9.55;8.45;;;;;;;-146.25;84.99;51946.47;2081394;28;20049;-71
2023/06/26 01:08:21;;;;;;;9.07;8.10;;;;;;;-146.25;85.86;51944.44;2080647;28;28773;-71
2023/06/26 01:09:26;;;;;;;9.70;8.70;;;;;;;-146.25;85.94;51956.63;2080783;28;20053;-71
2023/06/26 01:10:28;;;;;;;8.82;8.02;;;;;;;-146.25;85.18;51948.50;2089010;28;33680;-72
2023/06/26 01:11:30;;;;;;;8.55;7.75;;;;;;;-146.25;85.07;51950.53;2086924;28;33336;-71
2023/06/26 01:12:33;;;;;;;9.30;8.45;;;;;;;-146.25;85.64;51958.66;2087911;28;20057;-71
2023/06/26 01:13:36;;;;;;;9.02;8.13;;;;;;;-146.25;85.61;51950.53;2088745;28;20163;-71
2023/06/26 01:14:38;;;;;;;9.57;8.77;;;;;;;-146.25;85.90;51926.22;2087321;28;32699;-70
2023/06/26 01:15:43;;;;;;;9.02;8.05;;;;;;;-146.25;85.54;51916.06;2087982;28;20104;-71
2023/06/26 01:16:47;;;;;;;9.20;8.30;;;;;;;-146.25;86.13;51946.47;2095129;28;31814;-70
2023/06/26 01:17:51;;;;;;;11.00;8.98;;;;;;;-146.25;85.59;51907.97;2095474;28;20049;-71
2023/06/26 01:18:53;;;;;;;8.57;7.78;;;;;;;-146.25;85.62;51946.47;2095822;28;31004;-70
2023/06/26 01:19:55;;;;;;;8.73;7.93;;;;;;;-146.25;86.22;51987.03;2087906;28;23661;-70
2023/06/26 01:21:01;;;;;;;12.25;9.13;;;;;;;-146.25;86.26;51956.63;2087985;28;20045;-71
2023/06/26 01:22:27;;;;;;;9.07;8.27;;;;;;;-146.25;86.59;51946.47;2087361;28;25260;-70
2023/06/26 01:24:14;;;;;;;10.02;7.95;;;;;;;-146.25;86.62;51912.00;2087945;28;20044;-71
2023/06/26 01:25:40;;;;;;;8.68;7.88;;;;;;;-146.25;87.55;51966.75;2081702;28;37377;-70
2023/06/26 01:26:45;;;;;;;8.48;7.72;;;;;;;-146.25;86.74;51958.66;2096547;28;20064;-70
2023/06/26 01:27:53;;;;;;;9.52;8.63;;;;;;;-146.25;86.65;51950.53;2079605;28;20038;-71
2023/06/26 01:29:00;;;;;;;9.55;8.60;;;;;;;-146.25;86.46;51934.31;2073541;28;20058;-71
2023/06/26 01:30:32;;;;;;;9.10;8.30;;;;;;;-146.25;87.11;51950.53;2084633;28;20787;-71
2023/06/26 01:31:35;;;;;;;9.13;8.32;;;;;;;-146.25;87.01;51964.72;2092073;28;20041;-70
2023/06/26 01:32:40;;;;;;;9.32;8.30;;;;;;;-146.25;86.72;51948.50;2087731;28;35118;-70
2023/06/26 01:33:42;;;;;;;9.00;8.13;;;;;;;-146.25;87.31;51932.28;2087952;28;27905;-70
2023/06/26 01:34:45;;;;;;;9.18;8.30;;;;;;;-146.25;87.19;51907.97;2087391;28;28636;-71
2023/06/26 01:35:49;;;;;;;8.40;7.70;;;;;;;-146.25;87.20;51972.84;2079155;28;38116;-71
2023/06/26 01:36:52;;;;;;;8.55;7.78;;;;;;;-146.25;87.17;51982.97;2088581;28;20079;-71
2023/06/26 01:37:53;;;;;;;9.60;8.70;;;;;;;-146.25;87.52;51966.75;2087376;28;26141;-70
2023/06/26 01:38:55;;;;;;;8.57;7.78;;;;;;;-146.25;87.78;51982.97;2079173;28;27948;-70
2023/06/26 01:39:58;;;;;;;9.48;8.38;;;;;;;-146.25;87.50;51956.63;2087806;28;20037;-70
2023/06/26 01:41:03;;;;;;;10.23;8.63;;;;;;;-146.25;88.19;51987.03;2096707;28;30002;-71
2023/06/26 01:42:05;;;;;;;9.63;8.73;;;;;;;-146.25;88.09;51936.34;2094935;28;29791;-71
2023/06/26 01:43:16;;;;;;;11.90;9.15;;;;;;;-146.25;87.81;51976.88;2088231;28;30255;-70
2023/06/26 01:44:29;;;;;;;9.10;8.30;;;;;;;-146.25;88.53;51978.91;2088175;28;28520;-71
2023/06/26 01:45:32;;;;;;;9.60;8.70;;;;;;;-146.25;88.21;51940.41;2088018;28;33682;-70
2023/06/26 01:46:41;;;;;;;11.52;8.55;;;;;;;-146.25;88.40;51946.47;2095072;28;28779;-70
2023/06/26 01:47:49;;;;;;;9.13;8.25;;;;;;;-146.25;88.05;51960.66;2096240;28;20083;-70
2023/06/26 01:49:13;;;;;;;9.95;8.60;;;;;;;-146.25;88.12;51948.50;2087421;28;30986;-70
2023/06/26 01:50:25;;;;;;;9.50;8.55;;;;;;;-146.25;89.21;51954.59;2082714;28;20981;-71
2023/06/26 01:51:33;;;;;;;11.85;8.55;;;;;;;-146.25;88.35;51924.19;2081524;28;36406;-71
2023/06/26 01:53:06;;;;;;;9.20;8.30;;;;;;;-146.25;88.32;51978.91;2081429;28;20041;-71
2023/06/26 01:54:16;;;;;;;9.88;8.95;;;;;;;-146.25;88.94;51966.75;2092225;28;32402;-71
2023/06/26 01:56:01;;;;;;;11.48;8.95;;;;;;;-146.25;89.20;51950.53;2095163;28;20041;-70
2023/06/26 01:57:07;;;;;;;10.38;9.43;;;;;;;-146.25;90.64;51930.25;2096394;28;20152;-70
2023/06/26 01:58:09;;;;;;;11.55;8.93;;;;;;;-146.25;89.64;51970.81;2087758;28;20172;-70
2023/06/26 01:59:13;;;;;;;10.05;9.05;;;;;;;-146.25;89.57;51942.44;2071179;28;21152;-70
2023/06/26 02:00:19;;;;;;;9.90;8.85;;;;;;;-146.25;89.70;51970.81;2071751;28;20051;-71
2023/06/26 02:01:22;;;;;;;10.27;9.15;;;;;;;-146.25;89.99;51970.81;2079554;28;20046;-71
2023/06/26 02:02:25;;;;;;;10.15;8.32;;;;;;;-146.25;89.98;51991.09;2070883;28;28802;-70
2023/06/26 02:03:30;;;;;;;8.80;8.00;;;;;;;-146.25;90.18;51950.53;2071389;28;28132;-71
2023/06/26 02:04:31;;;;;;;10.02;9.13;;;;;;;-146.25;90.00;51962.69;2086905;28;20477;-71
2023/06/26 02:05:35;;;;;;;9.00;8.10;;;;;;;-146.25;89.89;51926.22;2080011;28;20038;-71
2023/06/26 02:06:41;;;;;;;11.85;9.27;;;;;;;-146.25;90.21;51978.91;2079548;28;20050;-71
2023/06/26 02:07:43;;;;;;;9.68;8.75;;;;;;;-146.25;90.75;51956.63;2078756;28;29408;-70
2023/06/26 02:08:46;;;;;;;9.32;8.43;;;;;;;-146.25;90.33;51952.56;2078624;28;25584;-71
2023/06/26 02:09:48;;;;;;;10.63;9.63;;;;;;;-146.25;91.08;51978.91;2078934;28;21957;-70
2023/06/26 02:10:49;;;;;;;9.32;8.43;;;;;;;-146.25;91.05;52001.22;2086657;28;29712;-70
2023/06/26 02:11:51;;;;;;;10.10;9.05;;;;;;;-146.25;91.73;51966.75;2086732;28;28813;-70
2023/06/26 02:12:53;;;;;;;9.52;8.63;;;;;;;-146.25;91.15;51960.66;2087845;28;20203;-70
2023/06/26 02:13:57;;;;;;;9.15;8.35;;;;;;;-146.25;91.12;51958.66;2070441;28;20126;-70
2023/06/26 02:14:59;;;;;;;10.32;8.82;;;;;;;-146.25;91.03;51980.94;2063954;28;20042;-70
2023/06/26 02:16:01;;;;;;;9.27;8.40;;;;;;;-146.25;91.54;51944.44;2085599;28;30274;-70
2023/06/26 02:17:03;;;;;;;10.45;9.45;;;;;;;-146.25;91.86;51954.59;2086932;28;32779;-71
2023/06/26 02:18:05;;;;;;;11.13;9.82;;;;;;;-146.25;91.74;51972.84;2087366;28;20041;-71
2023/06/26 02:19:08;;;;;;;10.30;9.25;;;;;;;-146.25;91.90;51982.97;2080001;28;20053;-71
2023/06/26 02:20:10;;;;;;;10.45;9.50;;;;;;;-146.25;92.25;51991.09;2080145;28;20763;-71
2023/06/26 02:21:13;;;;;;;9.70;8.80;;;;;;;-146.25;91.91;51970.81;2079489;28;32419;-70
2023/06/26 02:22:16;;;;;;;9.50;8.60;;;;;;;-146.25;91.77;51968.78;2079793;28;24273;-71
2023/06/26 02:23:18;;;;;;;9.95;9.05;;;;;;;-146.25;91.67;51982.97;2073115;28;20034;-70
2023/06/26 02:24:22;;;;;;;9.73;8.60;;;;;;;-146.25;91.82;51954.59;2080078;28;31660;-71
2023/06/26 02:25:24;;;;;;;10.07;9.18;;;;;;;-146.25;92.04;51970.81;2081238;28;28387;-70
2023/06/26 02:26:26;;;;;;;9.93;8.93;;;;;;;-146.25;92.54;51968.78;2081604;28;20050;-71
2023/06/26 02:27:30;;;;;;;9.50;8.63;;;;;;;-146.25;92.64;51976.88;2080899;28;30090;-71
2023/06/26 02:28:33;;;;;;;9.45;8.60;;;;;;;-146.25;92.05;51995.13;2080656;28;29464;-70
2023/06/26 02:29:43;;;;;;;9.77;8.77;;;;;;;-146.25;92.31;51991.09;2088015;28;25056;-71
2023/06/26 02:30:45;;;;;;;9.13;8.27;;;;;;;-146.25;92.33;51987.03;2087331;28;25452;-71
2023/06/26 02:31:49;;;;;;;9.57;8.77;;;;;;;-146.25;92.30;51952.56;2080184;28;27979;-71
2023/06/26 02:32:51;;;;;;;8.95;8.10;;;;;;;-146.25;92.35;51978.91;2081198;28;30629;-70
2023/06/26 02:33:55;;;;;;;11.90;9.63;;;;;;;-146.25;92.82;51978.91;2080361;28;28436;-71
2023/06/26 02:34:59;;;;;;;9.82;8.93;;;;;;;-146.25;93.04;51954.59;2080760;28;28801;-71
2023/06/26 02:36:01;;;;;;;10.68;9.60;;;;;;;-146.25;92.96;51974.88;2080968;28;30766;-70
2023/06/26 02:37:07;;;;;;;9.95;8.95;;;;;;;-146.25;93.15;51974.88;2081244;28;22131;-71
2023/06/26 02:38:09;;;;;;;10.30;9.30;;;;;;;-146.25;93.00;51989.06;2088804;28;20123;-70
2023/06/26 02:39:11;;;;;;;9.35;8.55;;;;;;;-146.25;93.31;51954.59;2080778;28;20053;-71
2023/06/26 02:40:16;;;;;;;9.77;8.88;;;;;;;-146.25;93.79;51999.19;2080689;28;20033;-71
2023/06/26 02:41:21;;;;;;;10.18;9.10;;;;;;;-146.25;93.17;51936.34;2088770;28;20104;-71
2023/06/26 02:42:25;;;;;;;10.93;9.82;;;;;;;-146.25;93.41;51985.00;2088551;28;21062;-70
2023/06/26 02:43:26;;;;;;;8.90;8.10;;;;;;;-146.25;93.71;51970.81;2088454;28;26142;-71
2023/06/26 02:44:28;;;;;;;10.20;9.30;;;;;;;-146.25;93.25;51980.94;2088851;28;21000;-71
2023/06/26 02:45:30;;;;;;;10.38;9.45;;;;;;;-146.25;93.63;51987.03;2090850;28;26868;-71
2023/06/26 02:46:33;;;;;;;9.75;8.75;;;;;;;-146.25;93.49;51991.09;2088481;28;20052;-71
2023/06/26 02:47:36;;;;;;;10.82;9.82;;;;;;;-146.25;93.34;51987.03;2080852;28;21359;-71
2023/06/26 02:48:38;;;;;;;12.18;9.50;;;;;;;-146.25;93.54;51960.66;2081085;28;20132;-71
2023/06/26 02:49:41;;;;;;;10.75;9.13;;;;;;;-146.25;93.32;51966.75;2088680;28;20046;-71
2023/06/26 02:50:45;;;;;;;10.40;9.30;;;;;;;-146.25;93.44;51993.09;2097004;28;20083;-71
2023/06/26 02:51:49;;;;;;;10.65;9.55;;;;;;;-146.25;93.14;51962.69;2088733;28;20135;-71
2023/06/26 02:52:58;;;;;;;9.98;8.98;;;;;;;-146.25;92.97;51974.88;2089873;28;20928;-71
2023/06/26 02:54:00;;;;;;;10.20;9.07;;;;;;;-146.25;92.98;51985.00;2088429;28;20048;-70
2023/06/26 02:55:04;;;;;;;10.23;9.27;;;;;;;-146.25;92.82;51962.69;2080456;28;20181;-70
2023/06/26 02:56:06;;;;;;;9.63;8.65;;;;;;;-146.25;93.28;51966.75;2089202;28;20053;-70
2023/06/26 02:57:09;;;;;;;11.05;9.52;;;;;;;-146.25;93.47;51962.69;2088643;28;20038;-71
2023/06/26 02:58:11;;;;;;;9.98;8.73;;;;;;;-146.25;93.25;51978.91;2089372;28;20057;-70
2023/06/26 02:59:14;;;;;;;9.25;8.25;;;;;;;-146.25;93.28;51974.88;2088780;28;21077;-70
2023/06/26 03:00:16;;;;;;;8.75;7.95;;;;;;;-146.25;92.97;51954.59;2088554;28;20041;-71
2023/06/26 03:01:22;;;;;;;9.98;9.00;;;;;;;-146.25;92.65;52007.31;2096787;28;20041;-70
2023/06/26 03:02:27;;;;;;;9.82;8.93;;;;;;;-146.25;93.03;51958.66;2088794;28;20949;-71
2023/06/26 03:03:29;;;;;;;10.65;9.02;;;;;;;-146.25;92.76;51982.97;2089097;28;20049;-71
2023/06/26 03:04:31;;;;;;;11.55;8.73;;;;;;;-146.25;92.36;51978.91;2088847;28;20970;-71
2023/06/26 03:05:37;;;;;;;9.85;8.95;;;;;;;-146.25;92.60;51954.59;2080746;28;21014;-71
2023/06/26 03:06:38;;;;;;;10.00;9.10;;;;;;;-146.25;93.00;51974.88;2088875;28;20930;-71
2023/06/26 03:07:40;;;;;;;9.68;8.77;;;;;;;-146.25;92.45;51985.00;2089268;28;20091;-71
2023/06/26 03:08:42;;;;;;;8.98;8.18;;;;;;;-146.25;92.43;52003.25;2097276;28;20037;-72
2023/06/26 03:09:44;;;;;;;10.68;9.38;;;;;;;-146.25;92.49;51999.19;2088572;28;20079;-71
2023/06/26 03:10:47;;;;;;;9.20;8.38;;;;;;;-146.25;92.59;51970.81;2088964;28;20104;-71
2023/06/26 03:11:49;;;;;;;9.85;9.00;;;;;;;-146.25;92.85;51989.06;2088323;28;20061;-71
2023/06/26 03:12:52;;;;;;;9.63;8.73;;;;;;;-146.25;92.71;51970.81;2088875;28;20096;-70
2023/06/26 03:13:54;;;;;;;10.13;9.15;;;;;;;-146.25;93.28;51948.50;2096750;28;20057;-71
2023/06/26 03:14:55;;;;;;;10.13;9.13;;;;;;;-146.25;92.57;51999.19;2088639;28;20164;-70
2023/06/26 03:16:00;;;;;;;10.32;8.93;;;;;;;-146.25;92.06;51978.91;2088433;28;20076;-71
2023/06/26 03:17:08;;;;;;;10.85;9.45;;;;;;;-146.25;92.36;51982.97;2096671;28;20041;-71
2023/06/26 03:18:11;;;;;;;8.57;7.78;;;;;;;-146.25;92.08;51968.78;2088488;28;20048;-70
2023/06/26 03:19:13;;;;;;;10.73;9.65;;;;;;;-146.25;91.43;51999.19;2088593;28;22318;-70
2023/06/26 03:20:41;;;;;;;9.27;8.38;;;;;;;-146.25;91.50;51985.00;2093580;28;20195;-70
2023/06/26 03:21:42;;;;;;;9.98;8.80;;;;;;;-146.25;91.40;51982.97;2089048;28;27254;-70
2023/06/26 03:22:44;;;;;;;9.68;8.77;;;;;;;-146.25;91.60;51960.66;2088238;28;20061;-70
2023/06/26 03:23:47;;;;;;;9.75;8.75;;;;;;;-146.25;91.21;51972.84;2088917;28;20041;-70
2023/06/26 03:24:49;;;;;;;10.10;8.93;;;;;;;-146.25;91.42;51997.16;2088493;28;20042;-70
2023/06/26 03:25:51;;;;;;;10.93;9.40;;;;;;;-146.25;91.34;51958.66;2089088;28;20055;-70
2023/06/26 03:27:00;;;;;;;10.43;9.43;;;;;;;-146.25;91.90;51985.00;2096478;28;20057;-70
2023/06/26 03:28:02;;;;;;;9.85;8.85;;;;;;;-146.25;91.40;51989.06;2096994;28;20886;-70
2023/06/26 03:29:07;;;;;;;10.18;9.25;;;;;;;-146.25;91.12;51958.66;2096572;28;20037;-70
2023/06/26 03:30:10;;;;;;;10.07;8.73;;;;;;;-146.25;90.79;51980.94;2088341;28;20266;-70
2023/06/26 03:31:14;;;;;;;10.23;9.23;;;;;;;-146.25;90.32;52005.28;2088835;28;21158;-69
2023/06/26 03:32:16;;;;;;;9.02;8.23;;;;;;;-146.25;90.49;51999.19;2095826;28;32906;-62
2023/06/26 03:33:18;;;;;;;8.75;7.90;;;;;;;-146.25;89.99;51989.06;2096142;28;20049;-71
2023/06/26 03:34:20;;;;;;;9.82;8.90;;;;;;;-146.25;89.17;51976.88;2096015;28;21101;-70
2023/06/26 03:35:25;;;;;;;9.55;8.57;;;;;;;-146.25;89.26;51974.88;2096501;28;20163;-70
2023/06/26 03:36:27;;;;;;;9.60;8.43;;;;;;;-146.25;89.05;51964.72;2096294;28;20101;-71
2023/06/26 03:37:29;;;;;;;9.93;8.93;;;;;;;-146.25;89.10;51980.94;2087866;28;20767;-71
2023/06/26 03:38:30;;;;;;;9.23;8.32;;;;;;;-146.25;88.67;52007.31;2088105;28;20049;-71
2023/06/26 03:39:34;;;;;;;8.75;7.80;;;;;;;-146.25;88.60;51991.09;2088371;28;20037;-70
2023/06/26 03:40:35;;;;;;;10.90;8.77;;;;;;;-146.25;88.03;51964.72;2088089;28;20937;-70
2023/06/26 03:41:37;;;;;;;10.05;8.48;;;;;;;-146.25;87.78;51999.19;2087975;28;20100;-71
2023/06/26 03:42:42;;;;;;;9.30;8.27;;;;;;;-146.25;87.27;51980.94;2088455;28;26152;-71
2023/06/26 03:43:45;;;;;;;10.48;8.57;;;;;;;-146.25;87.34;51985.00;2096694;28;20048;-71
2023/06/26 03:45:02;;;;;;;9.70;8.35;;;;;;;-146.25;87.19;51985.00;2088348;28;20881;-70
2023/06/26 03:46:06;;;;;;;9.15;8.35;;;;;;;-146.25;86.85;51987.03;2089292;28;20119;-71
2023/06/26 03:47:08;;;;;;;8.93;8.02;;;;;;;-146.25;86.85;51991.09;2088080;28;20478;-71
2023/06/26 03:48:10;;;;;;;9.10;8.20;;;;;;;-146.25;86.93;51995.13;2072066;28;20168;-71
2023/06/26 03:49:12;;;;;;;8.93;8.07;;;;;;;-146.25;86.46;52015.41;2071843;28;32836;-71
2023/06/26 03:50:17;;;;;;;9.43;8.57;;;;;;;-146.25;86.59;51995.13;2080417;28;20082;-70
2023/06/26 03:51:19;;;;;;;9.20;8.30;;;;;;;-146.25;86.15;51985.00;2088112;28;22413;-70
2023/06/26 03:52:21;;;;;;;9.90;8.90;;;;;;;-146.25;86.19;51985.00;2096974;28;20187;-70
2023/06/26 03:53:23;;;;;;;14.77;7.72;;;;;;;-146.25;86.34;51966.75;2088080;28;24118;-70
2023/06/26 03:54:27;;;;;;;9.13;8.20;;;;;;;-146.25;86.18;51966.75;2080120;28;20124;-71
2023/06/26 03:55:31;;;;;;;8.95;8.05;;;;;;;-146.25;86.08;52005.28;2088016;28;20096;-70
2023/06/26 03:56:35;;;;;;;7.72;6.65;;;;;;;-146.25;85.97;51974.88;2088628;28;26880;-70
2023/06/26 03:57:39;;;;;;;8.95;8.07;;;;;;;-146.25;85.33;51962.69;2096297;28;20214;-71
2023/06/26 03:58:43;;;;;;;8.68;7.85;;;;;;;-146.25;85.35;51950.53;2088445;28;20037;-71
2023/06/26 03:59:45;;;;;;;9.93;8.10;;;;;;;-146.25;84.99;52015.41;2088216;28;24990;-71
2023/06/26 04:00:47;;;;;;;8.73;7.93;;;;;;;-146.25;84.86;51995.13;2096809;28;20118;-71
2023/06/26 04:01:50;;;;;;;8.38;7.68;;;;;;;-146.25;83.88;51991.09;2087399;28;27382;-72
2023/06/26 04:02:54;;;;;;;10.00;8.38;;;;;;;-146.25;83.12;51968.78;2088681;28;20038;-71
2023/06/26 04:03:56;;;;;;;8.30;7.57;;;;;;;-146.25;82.53;51966.75;2087879;28;20029;-71
2023/06/26 04:04:58;;;;;;;7.82;7.18;;;;;;;-146.25;81.05;51964.72;2088255;28;20033;-71
2023/06/26 04:05:59;;;;;;;9.55;7.75;;;;;;;-146.25;79.81;51987.03;2096772;28;20040;-71
2023/06/26 04:07:02;;;;;;;12.90;7.60;;;;;;;-146.25;79.62;51991.09;2088195;28;22249;-70
2023/06/26 04:08:04;;;;;;;8.18;7.38;;;;;;;-146.25;78.65;51962.69;2080132;28;20100;-70
2023/06/26 04:09:05;;;;;;;8.48;7.68;;;;;;;-146.25;77.12;51997.16;2088332;28;27349;-71
2023/06/26 04:10:08;;;;;;;9.57;8.40;;;;;;;-146.25;76.02;51942.44;2088602;28;28598;-70
2023/06/26 04:11:11;;;;;;;8.45;7.65;;;;;;;-146.25;74.17;51960.66;2087964;28;30543;-70
2023/06/26 04:12:13;;;;;;;7.80;6.97;;;;;;;-146.25;71.70;51999.19;2079683;28;35630;-70
2023/06/26 04:13:15;;;;;;;8.32;7.53;;;;;;;-146.25;71.13;51972.84;2087585;28;34377;-70
2023/06/26 04:14:17;;;;;;;11.60;7.90;;;;;;;-146.25;69.40;51991.09;2088615;28;30425;-70
2023/06/26 04:15:18;;;;;;;8.38;6.90;;;;;;;-146.25;66.65;51997.16;2084064;28;35584;-70
2023/06/26 04:16:24;;;;;;;8.43;7.00;;;;;;;-146.25;65.68;51985.00;2087541;28;31417;-70
2023/06/26 04:17:26;;;;;;;8.65;7.30;;;;;;;-146.25;65.26;51966.75;2088814;28;31205;-70
2023/06/26 04:18:28;;;;;;;8.75;7.80;;;;;;;-146.25;63.91;51964.72;2088456;28;29542;-70
2023/06/26 04:19:30;;;;;;;8.70;7.47;;;;;;;-146.25;61.06;51980.94;2088175;28;31419;-69
2023/06/26 04:20:34;;;;;;;8.02;7.22;;;;;;;-146.25;60.52;51972.84;2088627;28;28304;-71
2023/06/26 04:21:36;;;;;;;8.60;7.85;;;;;;;-146.25;59.46;51946.47;2088475;28;30034;-70
2023/06/26 04:22:38;;;;;;;8.05;7.28;;;;;;;-146.25;59.19;51962.69;2088093;28;35437;-72
2023/06/26 04:23:40;;;;;;;8.40;7.60;;;;;;;-146.25;58.68;51985.00;2087368;28;34783;-72
2023/06/26 04:24:45;;;;;;;10.32;7.55;;;;;;;-146.25;60.22;51974.88;2088601;28;28755;-71
2023/06/26 04:25:47;;;;;;;8.23;6.75;;;;;;;-146.25;58.88;51960.66;2088218;28;35287;-70
2023/06/26 04:26:49;;;;;;;8.20;7.50;;;;;;;-146.25;58.63;51926.22;2088241;28;37294;-71
2023/06/26 04:27:51;;;;;;;8.13;7.32;;;;;;;-146.25;56.98;51970.81;2088964;28;26184;-71
2023/06/26 04:28:54;;;;;;;8.50;7.20;;;;;;;-146.25;56.74;51964.72;2088816;28;20048;-71
2023/06/26 04:29:56;;;;;;;7.95;6.93;;;;;;;-146.25;56.81;51924.19;2088302;28;36302;-71
2023/06/26 04:30:58;;;;;;;7.90;7.10;;;;;;;-146.25;57.23;51942.44;2088239;28;34076;-71
2023/06/26 04:32:00;;;;;;;7.60;6.88;;;;;;;-146.25;55.06;51930.25;2088126;28;33090;-71
2023/06/26 04:33:02;;;;;;;8.52;7.22;;;;;;;-146.25;54.47;51962.69;2088383;28;33134;-71
2023/06/26 04:34:04;;;;;;;7.57;6.78;;;;;;;-146.25;54.71;51918.09;2088131;28;33663;-70
2023/06/26 04:35:06;;;;;;;8.38;6.78;;;;;;;-146.25;53.41;51960.66;2095873;28;36871;-71
2023/06/26 04:36:08;;;;;;;8.75;6.95;;;;;;;-146.25;53.42;51926.22;2096360;28;20148;-72
2023/06/26 04:37:10;;;;;;;7.88;7.10;;;;;;;-146.25;52.29;51912.00;2088302;28;32261;-71
2023/06/26 04:38:12;;;;;;;8.18;6.97;;;;;;;-146.25;51.39;51956.63;2088463;28;30964;-70
2023/06/26 04:39:17;;;;;;;7.72;6.90;;;;;;;-146.25;53.09;51905.94;2088105;28;30926;-68
2023/06/26 04:40:18;;;;;;;7.03;6.30;;;;;;;-146.25;52.22;51920.13;2088108;28;34661;-70
2023/06/26 04:41:23;;;;;;;10.82;7.03;;;;;;;-146.25;54.02;51916.06;2088885;28;20038;-70
2023/06/26 04:42:24;;;;;;;8.05;7.22;;;;;;;-146.25;54.73;51926.22;2087549;28;37765;-70
2023/06/26 04:43:26;;;;;;;8.20;7.40;;;;;;;-146.25;54.81;51944.44;2088425;28;29594;-71
2023/06/26 04:44:28;;;;;;;8.02;7.18;;;;;;;-146.25;55.54;51952.56;2088163;28;34016;-70
2023/06/26 04:45:31;;;;;;;8.00;7.30;;;;;;;-146.25;54.76;51948.50;2087689;28;36541;-70
2023/06/26 04:46:33;;;;;;;9.90;7.68;;;;;;;-146.25;54.59;51948.50;2087914;28;31686;-70
2023/06/26 04:47:35;;;;;;;8.18;7.10;;;;;;;-146.25;53.43;51946.47;2095491;28;35776;-70
2023/06/26 04:48:37;;;;;;;8.70;7.63;;;;;;;-146.25;53.94;51926.22;2087570;28;37266;-70
2023/06/26 04:49:45;;;;;;;7.47;6.78;;;;;;;-146.25;54.02;51922.16;2087909;28;34587;-70
2023/06/26 04:50:53;;;;;;;8.13;7.32;;;;;;;-146.25;54.20;51930.25;2087174;28;42361;-70
2023/06/26 04:51:56;;;;;;;8.27;7.38;;;;;;;-146.25;53.72;51958.66;2088218;28;20140;-70
2023/06/26 04:52:58;;;;;;;8.55;7.68;;;;;;;-146.25;51.82;51907.97;2087969;28;36005;-70
2023/06/26 04:53:59;;;;;;;8.32;7.53;;;;;;;-146.25;52.02;51918.09;2088484;28;34280;-71